Главная страница
METAR-TAF:

METAR-TAF

Аэропорты :

Sullivan County International Airport

Monticello, Нью-Йорк, США

широта: 41-42N, долгота: 074-48W, высота над уровнем моря: 428 м

Текущие метеонаблюдения

Эта сводка был подготовлена 26 минут назад, в 05:56 UTC
Ветер 7 Узел от восточно-юго-восточный
Температура 16°C
Влажность 82%
Давление 1016 hPa
Видимость: 16.1 км
Сплошная облачность на высоте 1600 фута

METAR: KMSV 230556Z AUTO 11007KT 10SM OVC016 16/13 A2999 RMK AO2 SLP152 T01560133 10194 20156 58011

Время: 02:22 (06:22 UTC)


TAF: отсутствует

Метеонаблюдения и прогнозы для более 4000 аэропортов (сводки METAR и TAF).

Имеющиеся станции представлены на карте желтыми и красными точками.

Чтобы увидеть название станции, наведите на нее мышь.

Затем щелкните, чтобы увидеть метеонаблюдения и метеопрогнозы.

Управление картой: чтобы увеличить масштаб, щелкните зеленые кнопки с черным крестиком; чтобы уменьшить масштаб, щелкните зеленую кнопку с тире; для просмотра соседних карт щелкайте зеленые стрелки.


METAR-TAF: